sensor_id;sensor_type;location;lat;lon;timestamp;P1;durP1;ratioP1;P2;durP2;ratioP2
3054;SDS011;1537;52.018;8.542;2023-09-18T00:03:01;10.23;;;9.07;;
3054;SDS011;1537;52.018;8.542;2023-09-18T00:06:25;11.00;;;8.40;;
3054;SDS011;1537;52.018;8.542;2023-09-18T00:09:49;12.30;;;8.80;;
3054;SDS011;1537;52.018;8.542;2023-09-18T00:13:13;10.40;;;8.40;;
3054;SDS011;1537;52.018;8.542;2023-09-18T00:16:37;10.50;;;8.80;;
3054;SDS011;1537;52.018;8.542;2023-09-18T00:20:21;12.90;;;9.00;;
3054;SDS011;1537;52.018;8.542;2023-09-18T00:23:49;12.10;;;9.00;;
3054;SDS011;1537;52.018;8.542;2023-09-18T00:27:13;9.97;;;8.13;;
3054;SDS011;1537;52.018;8.542;2023-09-18T00:30:42;9.40;;;8.40;;
3054;SDS011;1537;52.018;8.542;2023-09-18T00:34:25;15.43;;;9.10;;
3054;SDS011;1537;52.018;8.542;2023-09-18T00:37:50;14.03;;;10.57;;
3054;SDS011;1537;52.018;8.542;2023-09-18T00:41:15;9.93;;;8.53;;
3054;SDS011;1537;52.018;8.542;2023-09-18T00:44:39;15.90;;;9.00;;
3054;SDS011;1537;52.018;8.542;2023-09-18T00:48:03;11.90;;;8.77;;
3054;SDS011;1537;52.018;8.542;2023-09-18T00:51:28;13.60;;;9.70;;
3054;SDS011;1537;52.018;8.542;2023-09-18T00:54:56;12.10;;;9.53;;
3054;SDS011;1537;52.018;8.542;2023-09-18T00:58:22;11.30;;;10.00;;
3054;SDS011;1537;52.018;8.542;2023-09-18T01:01:49;11.43;;;9.70;;
3054;SDS011;1537;52.018;8.542;2023-09-18T01:05:13;12.10;;;10.47;;
3054;SDS011;1537;52.018;8.542;2023-09-18T01:08:38;14.97;;;11.53;;
3054;SDS011;1537;52.018;8.542;2023-09-18T01:12:06;11.00;;;8.93;;
3054;SDS011;1537;52.018;8.542;2023-09-18T01:15:36;12.13;;;10.90;;
3054;SDS011;1537;52.018;8.542;2023-09-18T01:19:09;14.43;;;10.30;;
3054;SDS011;1537;52.018;8.542;2023-09-18T01:22:34;10.27;;;8.90;;
3054;SDS011;1537;52.018;8.542;2023-09-18T01:26:03;16.07;;;10.60;;
3054;SDS011;1537;52.018;8.542;2023-09-18T01:29:28;14.40;;;10.27;;
3054;SDS011;1537;52.018;8.542;2023-09-18T01:32:52;11.30;;;10.10;;
3054;SDS011;1537;52.018;8.542;2023-09-18T01:36:19;11.77;;;9.60;;
3054;SDS011;1537;52.018;8.542;2023-09-18T01:39:46;13.43;;;10.47;;
3054;SDS011;1537;52.018;8.542;2023-09-18T01:43:12;15.93;;;11.23;;
3054;SDS011;1537;52.018;8.542;2023-09-18T01:46:36;12.33;;;10.70;;
3054;SDS011;1537;52.018;8.542;2023-09-18T01:50:02;13.63;;;10.17;;
3054;SDS011;1537;52.018;8.542;2023-09-18T01:53:27;15.23;;;11.03;;
3054;SDS011;1537;52.018;8.542;2023-09-18T01:56:53;12.33;;;10.73;;
3054;SDS011;1537;52.018;8.542;2023-09-18T02:00:17;16.30;;;11.63;;
3054;SDS011;1537;52.018;8.542;2023-09-18T02:03:43;13.63;;;11.50;;
3054;SDS011;1537;52.018;8.542;2023-09-18T02:07:28;11.43;;;10.10;;
3054;SDS011;1537;52.018;8.542;2023-09-18T02:10:53;14.13;;;10.43;;
3054;SDS011;1537;52.018;8.542;2023-09-18T02:14:21;13.93;;;10.80;;
3054;SDS011;1537;52.018;8.542;2023-09-18T02:17:45;11.50;;;9.90;;
3054;SDS011;1537;52.018;8.542;2023-09-18T02:21:09;14.90;;;11.87;;
3054;SDS011;1537;52.018;8.542;2023-09-18T02:24:34;16.83;;;12.30;;
3054;SDS011;1537;52.018;8.542;2023-09-18T02:27:58;14.40;;;11.93;;
3054;SDS011;1537;52.018;8.542;2023-09-18T02:31:24;14.33;;;10.77;;
3054;SDS011;1537;52.018;8.542;2023-09-18T02:34:50;12.40;;;10.00;;
3054;SDS011;1537;52.018;8.542;2023-09-18T02:38:13;13.60;;;10.80;;
3054;SDS011;1537;52.018;8.542;2023-09-18T02:41:38;15.57;;;12.03;;
3054;SDS011;1537;52.018;8.542;2023-09-18T02:45:03;20.50;;;12.37;;
3054;SDS011;1537;52.018;8.542;2023-09-18T02:48:29;14.87;;;12.70;;
3054;SDS011;1537;52.018;8.542;2023-09-18T02:51:53;19.73;;;13.23;;
3054;SDS011;1537;52.018;8.542;2023-09-18T02:55:17;17.30;;;14.17;;
3054;SDS011;1537;52.018;8.542;2023-09-18T02:58:44;17.00;;;12.30;;
3054;SDS011;1537;52.018;8.542;2023-09-18T03:02:07;18.30;;;10.20;;
3054;SDS011;1537;52.018;8.542;2023-09-18T03:05:33;11.97;;;8.37;;
3054;SDS011;1537;52.018;8.542;2023-09-18T03:08:58;10.70;;;5.47;;
3054;SDS011;1537;52.018;8.542;2023-09-18T03:12:21;8.53;;;6.07;;
3054;SDS011;1537;52.018;8.542;2023-09-18T03:15:45;11.03;;;7.80;;
3054;SDS011;1537;52.018;8.542;2023-09-18T03:19:11;10.20;;;6.87;;
3054;SDS011;1537;52.018;8.542;2023-09-18T03:22:38;7.37;;;6.57;;
3054;SDS011;1537;52.018;8.542;2023-09-18T03:26:03;11.07;;;7.47;;
3054;SDS011;1537;52.018;8.542;2023-09-18T03:29:27;9.00;;;6.70;;
3054;SDS011;1537;52.018;8.542;2023-09-18T03:32:54;10.20;;;7.00;;
3054;SDS011;1537;52.018;8.542;2023-09-18T03:36:20;7.10;;;5.97;;
3054;SDS011;1537;52.018;8.542;2023-09-18T03:39:49;7.83;;;6.53;;
3054;SDS011;1537;52.018;8.542;2023-09-18T03:43:13;15.03;;;6.97;;
3054;SDS011;1537;52.018;8.542;2023-09-18T03:46:38;8.97;;;6.83;;
3054;SDS011;1537;52.018;8.542;2023-09-18T03:50:02;10.37;;;7.43;;
3054;SDS011;1537;52.018;8.542;2023-09-18T03:53:27;12.17;;;9.10;;
3054;SDS011;1537;52.018;8.542;2023-09-18T03:56:52;9.67;;;7.47;;
3054;SDS011;1537;52.018;8.542;2023-09-18T04:00:16;9.70;;;7.03;;
3054;SDS011;1537;52.018;8.542;2023-09-18T04:03:40;9.40;;;6.90;;
3054;SDS011;1537;52.018;8.542;2023-09-18T04:07:05;8.40;;;7.30;;
3054;SDS011;1537;52.018;8.542;2023-09-18T04:10:29;7.73;;;6.50;;
3054;SDS011;1537;52.018;8.542;2023-09-18T04:13:57;11.60;;;7.00;;
3054;SDS011;1537;52.018;8.542;2023-09-18T04:17:21;9.00;;;7.00;;
3054;SDS011;1537;52.018;8.542;2023-09-18T04:20:46;10.47;;;7.30;;
3054;SDS011;1537;52.018;8.542;2023-09-18T04:24:12;7.90;;;6.93;;
3054;SDS011;1537;52.018;8.542;2023-09-18T04:27:39;9.67;;;6.97;;
3054;SDS011;1537;52.018;8.542;2023-09-18T04:31:04;8.70;;;6.90;;
3054;SDS011;1537;52.018;8.542;2023-09-18T04:34:28;7.40;;;6.20;;
3054;SDS011;1537;52.018;8.542;2023-09-18T04:37:55;9.70;;;6.63;;
3054;SDS011;1537;52.018;8.542;2023-09-18T04:41:19;14.80;;;6.90;;
3054;SDS011;1537;52.018;8.542;2023-09-18T04:44:44;10.30;;;7.60;;
3054;SDS011;1537;52.018;8.542;2023-09-18T04:48:12;11.93;;;7.43;;
3054;SDS011;1537;52.018;8.542;2023-09-18T04:51:36;9.93;;;7.63;;
3054;SDS011;1537;52.018;8.542;2023-09-18T04:55:01;7.87;;;7.07;;
3054;SDS011;1537;52.018;8.542;2023-09-18T04:58:26;7.83;;;6.80;;
3054;SDS011;1537;52.018;8.542;2023-09-18T05:01:50;7.53;;;6.73;;
3054;SDS011;1537;52.018;8.542;2023-09-18T05:05:20;11.63;;;7.37;;
3054;SDS011;1537;52.018;8.542;2023-09-18T05:08:47;8.87;;;7.50;;
3054;SDS011;1537;52.018;8.542;2023-09-18T05:12:11;7.30;;;6.57;;
3054;SDS011;1537;52.018;8.542;2023-09-18T05:15:36;7.70;;;6.67;;
3054;SDS011;1537;52.018;8.542;2023-09-18T05:19:00;10.33;;;7.40;;
3054;SDS011;1537;52.018;8.542;2023-09-18T05:22:28;11.77;;;8.10;;
3054;SDS011;1537;52.018;8.542;2023-09-18T05:25:53;7.70;;;6.83;;
3054;SDS011;1537;52.018;8.542;2023-09-18T05:29:17;8.23;;;7.00;;
3054;SDS011;1537;52.018;8.542;2023-09-18T05:32:41;8.53;;;7.67;;
3054;SDS011;1537;52.018;8.542;2023-09-18T05:36:06;8.30;;;7.30;;
3054;SDS011;1537;52.018;8.542;2023-09-18T05:39:31;8.70;;;7.90;;
3054;SDS011;1537;52.018;8.542;2023-09-18T05:42:55;8.27;;;7.47;;
3054;SDS011;1537;52.018;8.542;2023-09-18T05:46:20;7.90;;;7.13;;
3054;SDS011;1537;52.018;8.542;2023-09-18T05:49:44;12.07;;;7.50;;
3054;SDS011;1537;52.018;8.542;2023-09-18T05:53:08;7.60;;;6.80;;
3054;SDS011;1537;52.018;8.542;2023-09-18T05:56:33;10.33;;;7.43;;
3054;SDS011;1537;52.018;8.542;2023-09-18T05:59:57;8.40;;;6.80;;
3054;SDS011;1537;52.018;8.542;2023-09-18T06:03:22;10.20;;;7.67;;
3054;SDS011;1537;52.018;8.542;2023-09-18T06:07:03;8.00;;;7.13;;
3054;SDS011;1537;52.018;8.542;2023-09-18T06:10:29;9.10;;;7.37;;
3054;SDS011;1537;52.018;8.542;2023-09-18T06:13:55;8.83;;;6.87;;
3054;SDS011;1537;52.018;8.542;2023-09-18T06:17:18;8.80;;;7.87;;
3054;SDS011;1537;52.018;8.542;2023-09-18T06:20:44;9.50;;;8.30;;
3054;SDS011;1537;52.018;8.542;2023-09-18T06:24:08;8.77;;;7.87;;
3054;SDS011;1537;52.018;8.542;2023-09-18T06:27:33;7.53;;;6.73;;
3054;SDS011;1537;52.018;8.542;2023-09-18T06:31:00;8.90;;;7.13;;
3054;SDS011;1537;52.018;8.542;2023-09-18T06:34:24;8.50;;;7.70;;
3054;SDS011;1537;52.018;8.542;2023-09-18T06:37:47;10.93;;;8.00;;
3054;SDS011;1537;52.018;8.542;2023-09-18T06:41:11;8.93;;;8.07;;
3054;SDS011;1537;52.018;8.542;2023-09-18T06:44:35;9.37;;;6.93;;
3054;SDS011;1537;52.018;8.542;2023-09-18T06:48:00;9.00;;;7.60;;
3054;SDS011;1537;52.018;8.542;2023-09-18T06:51:24;9.57;;;7.47;;
3054;SDS011;1537;52.018;8.542;2023-09-18T06:55:04;8.97;;;7.23;;
3054;SDS011;1537;52.018;8.542;2023-09-18T06:58:28;9.47;;;8.20;;
3054;SDS011;1537;52.018;8.542;2023-09-18T07:01:51;7.93;;;7.13;;
3054;SDS011;1537;52.018;8.542;2023-09-18T07:05:16;10.93;;;7.50;;
3054;SDS011;1537;52.018;8.542;2023-09-18T07:08:40;11.40;;;7.93;;
3054;SDS011;1537;52.018;8.542;2023-09-18T07:12:05;8.53;;;7.63;;
3054;SDS011;1537;52.018;8.542;2023-09-18T07:15:29;8.57;;;6.83;;
3054;SDS011;1537;52.018;8.542;2023-09-18T07:18:53;9.57;;;7.20;;
3054;SDS011;1537;52.018;8.542;2023-09-18T07:22:18;11.97;;;6.33;;
3054;SDS011;1537;52.018;8.542;2023-09-18T07:25:42;9.93;;;7.00;;
3054;SDS011;1537;52.018;8.542;2023-09-18T07:29:06;7.83;;;6.90;;
3054;SDS011;1537;52.018;8.542;2023-09-18T07:32:29;8.60;;;6.57;;
3054;SDS011;1537;52.018;8.542;2023-09-18T07:35:57;9.23;;;6.60;;
3054;SDS011;1537;52.018;8.542;2023-09-18T07:39:22;11.60;;;7.40;;
3054;SDS011;1537;52.018;8.542;2023-09-18T07:42:46;9.77;;;6.40;;
3054;SDS011;1537;52.018;8.542;2023-09-18T07:46:10;10.67;;;7.17;;
3054;SDS011;1537;52.018;8.542;2023-09-18T07:49:34;11.77;;;6.00;;
3054;SDS011;1537;52.018;8.542;2023-09-18T07:52:57;9.07;;;5.90;;
3054;SDS011;1537;52.018;8.542;2023-09-18T07:56:22;11.40;;;5.77;;
3054;SDS011;1537;52.018;8.542;2023-09-18T07:59:46;7.40;;;5.73;;
3054;SDS011;1537;52.018;8.542;2023-09-18T08:03:10;13.67;;;6.20;;
3054;SDS011;1537;52.018;8.542;2023-09-18T08:06:34;10.03;;;5.40;;
3054;SDS011;1537;52.018;8.542;2023-09-18T08:09:58;8.67;;;5.20;;
3054;SDS011;1537;52.018;8.542;2023-09-18T08:13:23;8.10;;;4.90;;
3054;SDS011;1537;52.018;8.542;2023-09-18T08:16:47;7.70;;;5.00;;
3054;SDS011;1537;52.018;8.542;2023-09-18T08:20:11;6.77;;;5.23;;
3054;SDS011;1537;52.018;8.542;2023-09-18T08:23:36;8.90;;;4.60;;
3054;SDS011;1537;52.018;8.542;2023-09-18T08:27:00;7.43;;;5.40;;
3054;SDS011;1537;52.018;8.542;2023-09-18T08:30:26;12.73;;;5.33;;
3054;SDS011;1537;52.018;8.542;2023-09-18T08:33:50;8.80;;;4.90;;
3054;SDS011;1537;52.018;8.542;2023-09-18T08:37:14;7.73;;;4.97;;
3054;SDS011;1537;52.018;8.542;2023-09-18T08:40:39;13.77;;;5.20;;
3054;SDS011;1537;52.018;8.542;2023-09-18T08:44:04;10.50;;;5.03;;
3054;SDS011;1537;52.018;8.542;2023-09-18T08:47:34;9.43;;;5.30;;
3054;SDS011;1537;52.018;8.542;2023-09-18T08:50:59;7.10;;;5.47;;
3054;SDS011;1537;52.018;8.542;2023-09-18T08:54:24;9.53;;;5.73;;
3054;SDS011;1537;52.018;8.542;2023-09-18T08:57:50;7.90;;;5.37;;
3054;SDS011;1537;52.018;8.542;2023-09-18T09:01:17;11.23;;;5.57;;
3054;SDS011;1537;52.018;8.542;2023-09-18T09:04:42;8.00;;;4.63;;
3054;SDS011;1537;52.018;8.542;2023-09-18T09:08:06;9.20;;;6.20;;
3054;SDS011;1537;52.018;8.542;2023-09-18T09:11:30;6.77;;;4.77;;
3054;SDS011;1537;52.018;8.542;2023-09-18T09:15:01;9.43;;;4.90;;
3054;SDS011;1537;52.018;8.542;2023-09-18T09:18:28;8.17;;;5.70;;
3054;SDS011;1537;52.018;8.542;2023-09-18T09:21:54;12.47;;;5.20;;
3054;SDS011;1537;52.018;8.542;2023-09-18T09:25:23;8.63;;;4.73;;
3054;SDS011;1537;52.018;8.542;2023-09-18T09:28:48;10.40;;;4.60;;
3054;SDS011;1537;52.018;8.542;2023-09-18T09:32:13;9.43;;;5.13;;
3054;SDS011;1537;52.018;8.542;2023-09-18T09:35:40;8.13;;;5.47;;
3054;SDS011;1537;52.018;8.542;2023-09-18T09:39:06;7.50;;;4.80;;
3054;SDS011;1537;52.018;8.542;2023-09-18T09:42:38;8.47;;;4.90;;
3054;SDS011;1537;52.018;8.542;2023-09-18T09:46:02;17.30;;;5.47;;
3054;SDS011;1537;52.018;8.542;2023-09-18T09:49:26;6.83;;;5.00;;
3054;SDS011;1537;52.018;8.542;2023-09-18T09:52:55;7.30;;;5.30;;
3054;SDS011;1537;52.018;8.542;2023-09-18T09:56:20;9.00;;;5.30;;
3054;SDS011;1537;52.018;8.542;2023-09-18T09:59:44;9.97;;;5.60;;
3054;SDS011;1537;52.018;8.542;2023-09-18T10:03:09;6.40;;;5.67;;
3054;SDS011;1537;52.018;8.542;2023-09-18T10:06:35;8.40;;;4.97;;
3054;SDS011;1537;52.018;8.542;2023-09-18T10:10:00;7.10;;;5.23;;
3054;SDS011;1537;52.018;8.542;2023-09-18T10:13:26;9.40;;;5.80;;
3054;SDS011;1537;52.018;8.542;2023-09-18T10:16:55;6.30;;;4.73;;
3054;SDS011;1537;52.018;8.542;2023-09-18T10:20:21;6.50;;;4.80;;
3054;SDS011;1537;52.018;8.542;2023-09-18T10:23:50;6.57;;;5.00;;
3054;SDS011;1537;52.018;8.542;2023-09-18T10:27:21;6.00;;;4.10;;
3054;SDS011;1537;52.018;8.542;2023-09-18T10:30:49;7.60;;;4.90;;
3054;SDS011;1537;52.018;8.542;2023-09-18T10:34:14;6.97;;;4.97;;
3054;SDS011;1537;52.018;8.542;2023-09-18T10:37:40;7.53;;;4.80;;
3054;SDS011;1537;52.018;8.542;2023-09-18T10:41:08;7.93;;;5.17;;
3054;SDS011;1537;52.018;8.542;2023-09-18T10:44:33;7.17;;;4.80;;
3054;SDS011;1537;52.018;8.542;2023-09-18T10:47:59;8.37;;;4.87;;
3054;SDS011;1537;52.018;8.542;2023-09-18T10:51:24;13.20;;;5.53;;
3054;SDS011;1537;52.018;8.542;2023-09-18T10:54:48;5.33;;;4.33;;
3054;SDS011;1537;52.018;8.542;2023-09-18T10:58:12;6.30;;;4.90;;
3054;SDS011;1537;52.018;8.542;2023-09-18T11:01:47;6.93;;;4.80;;
3054;SDS011;1537;52.018;8.542;2023-09-18T11:05:12;7.40;;;4.67;;
3054;SDS011;1537;52.018;8.542;2023-09-18T11:08:42;10.00;;;4.90;;
3054;SDS011;1537;52.018;8.542;2023-09-18T11:12:08;8.00;;;4.93;;
3054;SDS011;1537;52.018;8.542;2023-09-18T11:15:33;7.63;;;5.23;;
3054;SDS011;1537;52.018;8.542;2023-09-18T11:19:05;6.03;;;4.40;;
3054;SDS011;1537;52.018;8.542;2023-09-18T11:22:34;7.60;;;4.70;;
3054;SDS011;1537;52.018;8.542;2023-09-18T11:25:59;9.63;;;5.30;;
3054;SDS011;1537;52.018;8.542;2023-09-18T11:29:28;5.73;;;4.70;;
3054;SDS011;1537;52.018;8.542;2023-09-18T11:32:54;8.80;;;5.23;;
3054;SDS011;1537;52.018;8.542;2023-09-18T11:36:28;6.27;;;4.63;;
3054;SDS011;1537;52.018;8.542;2023-09-18T11:39:54;7.90;;;5.30;;
3054;SDS011;1537;52.018;8.542;2023-09-18T11:43:19;6.60;;;4.93;;
3054;SDS011;1537;52.018;8.542;2023-09-18T11:46:48;7.17;;;4.67;;
3054;SDS011;1537;52.018;8.542;2023-09-18T11:50:14;9.07;;;5.00;;
3054;SDS011;1537;52.018;8.542;2023-09-18T11:53:44;6.30;;;4.50;;
3054;SDS011;1537;52.018;8.542;2023-09-18T11:57:10;9.90;;;5.70;;
3054;SDS011;1537;52.018;8.542;2023-09-18T12:00:35;7.93;;;5.53;;
3054;SDS011;1537;52.018;8.542;2023-09-18T12:04:07;6.03;;;5.50;;
3054;SDS011;1537;52.018;8.542;2023-09-18T12:07:31;7.63;;;6.17;;
3054;SDS011;1537;52.018;8.542;2023-09-18T12:10:55;7.20;;;5.63;;
3054;SDS011;1537;52.018;8.542;2023-09-18T12:14:21;6.60;;;5.17;;
3054;SDS011;1537;52.018;8.542;2023-09-18T12:17:44;10.23;;;5.80;;
3054;SDS011;1537;52.018;8.542;2023-09-18T12:21:09;6.53;;;5.20;;
3054;SDS011;1537;52.018;8.542;2023-09-18T12:24:33;7.43;;;6.27;;
3054;SDS011;1537;52.018;8.542;2023-09-18T12:27:57;9.17;;;5.70;;
3054;SDS011;1537;52.018;8.542;2023-09-18T12:31:23;8.97;;;5.53;;
3054;SDS011;1537;52.018;8.542;2023-09-18T12:34:47;7.10;;;5.60;;
3054;SDS011;1537;52.018;8.542;2023-09-18T12:38:15;7.13;;;6.20;;
3054;SDS011;1537;52.018;8.542;2023-09-18T12:41:41;7.77;;;5.73;;
3054;SDS011;1537;52.018;8.542;2023-09-18T12:45:07;6.00;;;4.97;;
3054;SDS011;1537;52.018;8.542;2023-09-18T12:48:33;5.87;;;4.80;;
3054;SDS011;1537;52.018;8.542;2023-09-18T12:52:00;7.77;;;5.37;;
3054;SDS011;1537;52.018;8.542;2023-09-18T12:55:28;6.73;;;5.73;;
3054;SDS011;1537;52.018;8.542;2023-09-18T12:58:53;6.00;;;5.20;;
3054;SDS011;1537;52.018;8.542;2023-09-18T13:02:36;6.00;;;5.27;;
3054;SDS011;1537;52.018;8.542;2023-09-18T13:06:09;6.00;;;5.33;;
3054;SDS011;1537;52.018;8.542;2023-09-18T13:09:33;6.60;;;5.30;;
3054;SDS011;1537;52.018;8.542;2023-09-18T13:12:59;6.70;;;5.30;;
3054;SDS011;1537;52.018;8.542;2023-09-18T13:16:25;8.00;;;5.60;;
3054;SDS011;1537;52.018;8.542;2023-09-18T13:19:49;6.43;;;5.43;;
3054;SDS011;1537;52.018;8.542;2023-09-18T13:23:14;5.83;;;5.10;;
3054;SDS011;1537;52.018;8.542;2023-09-18T13:26:43;6.87;;;5.20;;
3054;SDS011;1537;52.018;8.542;2023-09-18T13:30:08;5.73;;;5.13;;
3054;SDS011;1537;52.018;8.542;2023-09-18T13:33:32;5.57;;;5.07;;
3054;SDS011;1537;52.018;8.542;2023-09-18T13:36:56;6.03;;;5.30;;
3054;SDS011;1537;52.018;8.542;2023-09-18T13:40:22;5.70;;;5.10;;
3054;SDS011;1537;52.018;8.542;2023-09-18T13:43:45;6.80;;;5.53;;
3054;SDS011;1537;52.018;8.542;2023-09-18T13:47:10;6.97;;;5.90;;
3054;SDS011;1537;52.018;8.542;2023-09-18T13:50:35;8.90;;;5.83;;
3054;SDS011;1537;52.018;8.542;2023-09-18T13:53:59;8.10;;;5.53;;
3054;SDS011;1537;52.018;8.542;2023-09-18T13:57:27;7.57;;;5.20;;
3054;SDS011;1537;52.018;8.542;2023-09-18T14:00:51;7.80;;;5.13;;
3054;SDS011;1537;52.018;8.542;2023-09-18T14:04:15;8.10;;;5.07;;
3054;SDS011;1537;52.018;8.542;2023-09-18T14:07:39;6.00;;;4.80;;
3054;SDS011;1537;52.018;8.542;2023-09-18T14:11:03;5.70;;;5.00;;
3054;SDS011;1537;52.018;8.542;2023-09-18T14:14:29;8.13;;;5.60;;
3054;SDS011;1537;52.018;8.542;2023-09-18T14:17:54;8.60;;;5.43;;
3054;SDS011;1537;52.018;8.542;2023-09-18T14:21:17;6.50;;;4.90;;
3054;SDS011;1537;52.018;8.542;2023-09-18T14:24:41;12.93;;;5.20;;
3054;SDS011;1537;52.018;8.542;2023-09-18T14:28:05;8.10;;;4.70;;
3054;SDS011;1537;52.018;8.542;2023-09-18T14:31:30;6.10;;;4.47;;
3054;SDS011;1537;52.018;8.542;2023-09-18T14:34:53;6.43;;;5.10;;
3054;SDS011;1537;52.018;8.542;2023-09-18T14:38:17;5.20;;;4.70;;
3054;SDS011;1537;52.018;8.542;2023-09-18T14:41:41;7.63;;;4.80;;
3054;SDS011;1537;52.018;8.542;2023-09-18T14:45:05;5.10;;;4.37;;
3054;SDS011;1537;52.018;8.542;2023-09-18T14:48:32;5.33;;;4.83;;
3054;SDS011;1537;52.018;8.542;2023-09-18T14:51:56;7.03;;;5.97;;
3054;SDS011;1537;52.018;8.542;2023-09-18T14:55:20;8.47;;;6.33;;
3054;SDS011;1537;52.018;8.542;2023-09-18T14:58:45;6.60;;;4.93;;
3054;SDS011;1537;52.018;8.542;2023-09-18T15:02:09;10.57;;;5.20;;
3054;SDS011;1537;52.018;8.542;2023-09-18T15:05:35;5.80;;;4.70;;
3054;SDS011;1537;52.018;8.542;2023-09-18T15:09:00;10.63;;;4.97;;
3054;SDS011;1537;52.018;8.542;2023-09-18T15:12:25;6.93;;;4.80;;
3054;SDS011;1537;52.018;8.542;2023-09-18T15:15:48;6.20;;;4.87;;
3054;SDS011;1537;52.018;8.542;2023-09-18T15:19:12;6.40;;;4.90;;
3054;SDS011;1537;52.018;8.542;2023-09-18T15:22:42;10.03;;;5.13;;
3054;SDS011;1537;52.018;8.542;2023-09-18T15:26:06;5.27;;;4.67;;
3054;SDS011;1537;52.018;8.542;2023-09-18T15:29:30;6.70;;;5.07;;
3054;SDS011;1537;52.018;8.542;2023-09-18T15:32:56;6.00;;;4.50;;
3054;SDS011;1537;52.018;8.542;2023-09-18T15:36:20;7.53;;;4.73;;
3054;SDS011;1537;52.018;8.542;2023-09-18T15:39:46;6.57;;;4.73;;
3054;SDS011;1537;52.018;8.542;2023-09-18T15:43:10;6.00;;;4.87;;
3054;SDS011;1537;52.018;8.542;2023-09-18T15:46:34;6.60;;;4.70;;
3054;SDS011;1537;52.018;8.542;2023-09-18T15:49:57;7.10;;;4.97;;
3054;SDS011;1537;52.018;8.542;2023-09-18T15:53:21;7.83;;;5.30;;
3054;SDS011;1537;52.018;8.542;2023-09-18T15:56:46;9.97;;;4.90;;
3054;SDS011;1537;52.018;8.542;2023-09-18T16:00:11;9.97;;;5.13;;
3054;SDS011;1537;52.018;8.542;2023-09-18T16:03:35;7.90;;;4.70;;
3054;SDS011;1537;52.018;8.542;2023-09-18T16:07:02;8.33;;;4.73;;
3054;SDS011;1537;52.018;8.542;2023-09-18T16:10:26;7.33;;;4.90;;
3054;SDS011;1537;52.018;8.542;2023-09-18T16:13:51;6.13;;;5.10;;
3054;SDS011;1537;52.018;8.542;2023-09-18T16:17:15;7.17;;;4.97;;
3054;SDS011;1537;52.018;8.542;2023-09-18T16:20:38;9.10;;;5.47;;
3054;SDS011;1537;52.018;8.542;2023-09-18T16:24:02;7.53;;;5.17;;
3054;SDS011;1537;52.018;8.542;2023-09-18T16:27:28;8.23;;;4.90;;
3054;SDS011;1537;52.018;8.542;2023-09-18T16:30:54;7.87;;;5.00;;
3054;SDS011;1537;52.018;8.542;2023-09-18T16:34:18;7.60;;;5.50;;
3054;SDS011;1537;52.018;8.542;2023-09-18T16:37:43;7.07;;;5.10;;
3054;SDS011;1537;52.018;8.542;2023-09-18T16:41:08;6.03;;;4.70;;
3054;SDS011;1537;52.018;8.542;2023-09-18T16:44:32;6.13;;;5.00;;
3054;SDS011;1537;52.018;8.542;2023-09-18T16:47:57;7.13;;;5.40;;
3054;SDS011;1537;52.018;8.542;2023-09-18T16:51:21;8.10;;;4.73;;
3054;SDS011;1537;52.018;8.542;2023-09-18T16:54:44;6.07;;;4.33;;
3054;SDS011;1537;52.018;8.542;2023-09-18T16:58:11;7.70;;;4.83;;
3054;SDS011;1537;52.018;8.542;2023-09-18T17:01:35;9.87;;;4.90;;
3054;SDS011;1537;52.018;8.542;2023-09-18T17:05:00;6.40;;;5.30;;
3054;SDS011;1537;52.018;8.542;2023-09-18T17:08:26;8.80;;;5.07;;
3054;SDS011;1537;52.018;8.542;2023-09-18T17:11:50;8.77;;;5.07;;
3054;SDS011;1537;52.018;8.542;2023-09-18T17:15:14;7.53;;;4.97;;
3054;SDS011;1537;52.018;8.542;2023-09-18T17:18:46;5.23;;;4.47;;
3054;SDS011;1537;52.018;8.542;2023-09-18T17:22:11;6.83;;;4.43;;
3054;SDS011;1537;52.018;8.542;2023-09-18T17:25:34;8.13;;;4.90;;
3054;SDS011;1537;52.018;8.542;2023-09-18T17:28:58;8.23;;;4.50;;
3054;SDS011;1537;52.018;8.542;2023-09-18T17:32:22;8.80;;;5.10;;
3054;SDS011;1537;52.018;8.542;2023-09-18T17:35:46;6.43;;;4.70;;
3054;SDS011;1537;52.018;8.542;2023-09-18T17:39:12;7.33;;;4.83;;
3054;SDS011;1537;52.018;8.542;2023-09-18T17:42:37;7.80;;;4.83;;
3054;SDS011;1537;52.018;8.542;2023-09-18T17:46:02;5.43;;;4.83;;
3054;SDS011;1537;52.018;8.542;2023-09-18T17:49:32;5.80;;;4.50;;
3054;SDS011;1537;52.018;8.542;2023-09-18T17:52:57;7.40;;;5.00;;
3054;SDS011;1537;52.018;8.542;2023-09-18T17:56:22;6.60;;;4.63;;
3054;SDS011;1537;52.018;8.542;2023-09-18T17:59:47;5.87;;;5.23;;
3054;SDS011;1537;52.018;8.542;2023-09-18T18:03:15;5.80;;;5.00;;
3054;SDS011;1537;52.018;8.542;2023-09-18T18:06:41;7.53;;;4.83;;
3054;SDS011;1537;52.018;8.542;2023-09-18T18:10:06;5.50;;;4.20;;
3054;SDS011;1537;52.018;8.542;2023-09-18T18:13:32;5.57;;;5.00;;
3054;SDS011;1537;52.018;8.542;2023-09-18T18:16:56;6.23;;;5.00;;
3054;SDS011;1537;52.018;8.542;2023-09-18T18:20:21;5.50;;;4.83;;
3054;SDS011;1537;52.018;8.542;2023-09-18T18:23:45;5.77;;;4.67;;
3054;SDS011;1537;52.018;8.542;2023-09-18T18:27:09;7.30;;;5.00;;
3054;SDS011;1537;52.018;8.542;2023-09-18T18:30:34;8.50;;;5.20;;
3054;SDS011;1537;52.018;8.542;2023-09-18T18:33:58;7.00;;;5.10;;
3054;SDS011;1537;52.018;8.542;2023-09-18T18:37:25;6.93;;;4.87;;
3054;SDS011;1537;52.018;8.542;2023-09-18T18:40:55;5.73;;;4.27;;
3054;SDS011;1537;52.018;8.542;2023-09-18T18:44:26;6.90;;;4.50;;
3054;SDS011;1537;52.018;8.542;2023-09-18T18:47:52;7.33;;;5.00;;
3054;SDS011;1537;52.018;8.542;2023-09-18T18:51:17;7.07;;;4.90;;
3054;SDS011;1537;52.018;8.542;2023-09-18T18:54:42;6.57;;;4.87;;
3054;SDS011;1537;52.018;8.542;2023-09-18T18:58:06;6.10;;;4.80;;
3054;SDS011;1537;52.018;8.542;2023-09-18T19:01:31;6.23;;;4.53;;
3054;SDS011;1537;52.018;8.542;2023-09-18T19:05:02;7.10;;;5.07;;
3054;SDS011;1537;52.018;8.542;2023-09-18T19:08:27;5.13;;;4.30;;
3054;SDS011;1537;52.018;8.542;2023-09-18T19:11:52;7.27;;;4.60;;
3054;SDS011;1537;52.018;8.542;2023-09-18T19:15:16;6.70;;;4.30;;
3054;SDS011;1537;52.018;8.542;2023-09-18T19:18:46;5.03;;;4.20;;
3054;SDS011;1537;52.018;8.542;2023-09-18T19:22:11;7.43;;;4.20;;
3054;SDS011;1537;52.018;8.542;2023-09-18T19:25:44;7.60;;;4.03;;
3054;SDS011;1537;52.018;8.542;2023-09-18T19:29:11;4.63;;;3.60;;
3054;SDS011;1537;52.018;8.542;2023-09-18T19:32:37;6.70;;;4.13;;
3054;SDS011;1537;52.018;8.542;2023-09-18T19:36:02;7.33;;;4.90;;
3054;SDS011;1537;52.018;8.542;2023-09-18T19:39:29;5.70;;;3.90;;
3054;SDS011;1537;52.018;8.542;2023-09-18T19:42:53;8.33;;;4.50;;
3054;SDS011;1537;52.018;8.542;2023-09-18T19:46:17;8.13;;;3.67;;
3054;SDS011;1537;52.018;8.542;2023-09-18T19:49:40;4.90;;;2.93;;
3054;SDS011;1537;52.018;8.542;2023-09-18T19:53:05;4.77;;;2.50;;
3054;SDS011;1537;52.018;8.542;2023-09-18T19:56:30;5.10;;;2.77;;
3054;SDS011;1537;52.018;8.542;2023-09-18T19:59:54;7.70;;;2.67;;
3054;SDS011;1537;52.018;8.542;2023-09-18T20:03:21;5.70;;;2.73;;
3054;SDS011;1537;52.018;8.542;2023-09-18T20:06:45;6.90;;;2.57;;
3054;SDS011;1537;52.018;8.542;2023-09-18T20:10:08;5.50;;;2.60;;
3054;SDS011;1537;52.018;8.542;2023-09-18T20:13:34;5.13;;;2.40;;
3054;SDS011;1537;52.018;8.542;2023-09-18T20:16:59;6.80;;;2.53;;
3054;SDS011;1537;52.018;8.542;2023-09-18T20:20:23;4.90;;;2.63;;
3054;SDS011;1537;52.018;8.542;2023-09-18T20:23:48;6.10;;;3.00;;
3054;SDS011;1537;52.018;8.542;2023-09-18T20:27:12;7.83;;;2.33;;
3054;SDS011;1537;52.018;8.542;2023-09-18T20:30:37;4.17;;;2.07;;
3054;SDS011;1537;52.018;8.542;2023-09-18T20:34:00;6.40;;;2.40;;
3054;SDS011;1537;52.018;8.542;2023-09-18T20:37:24;5.63;;;2.87;;
3054;SDS011;1537;52.018;8.542;2023-09-18T20:40:48;5.87;;;2.40;;
3054;SDS011;1537;52.018;8.542;2023-09-18T20:44:11;7.33;;;2.50;;
3054;SDS011;1537;52.018;8.542;2023-09-18T20:47:37;5.13;;;2.47;;
3054;SDS011;1537;52.018;8.542;2023-09-18T20:51:00;5.00;;;2.10;;
3054;SDS011;1537;52.018;8.542;2023-09-18T20:54:24;8.50;;;2.63;;
3054;SDS011;1537;52.018;8.542;2023-09-18T20:57:48;4.67;;;2.27;;
3054;SDS011;1537;52.018;8.542;2023-09-18T21:01:12;4.97;;;2.40;;
3054;SDS011;1537;52.018;8.542;2023-09-18T21:04:37;7.07;;;2.60;;
3054;SDS011;1537;52.018;8.542;2023-09-18T21:08:01;6.03;;;2.30;;
3054;SDS011;1537;52.018;8.542;2023-09-18T21:11:25;6.73;;;2.30;;